createdAt,value
2018-12-26T00:02:12.196Z,7.08
2018-12-26T00:05:12.085Z,9.75
2018-12-26T00:08:13.604Z,8.33
2018-12-26T00:11:13.878Z,8.53
2018-12-26T00:14:14.054Z,12.80
2018-12-26T00:17:14.492Z,9.43
2018-12-26T00:20:14.411Z,10.32
2018-12-26T00:23:13.960Z,10.18
2018-12-26T00:26:14.520Z,10.13
2018-12-26T00:29:14.410Z,12.80
2018-12-26T00:32:14.914Z,15.35
2018-12-26T00:35:14.656Z,10.05
2018-12-26T00:38:14.375Z,12.03
2018-12-26T00:41:15.519Z,11.70
2018-12-26T00:44:15.788Z,11.33
2018-12-26T00:47:15.215Z,12.98
2018-12-26T00:50:15.524Z,14.50
2018-12-26T00:53:15.758Z,13.05
2018-12-26T00:56:16.030Z,12.60
2018-12-26T00:59:16.515Z,18.30
2018-12-26T01:02:19.875Z,16.60
2018-12-26T01:05:20.574Z,18.32
2018-12-26T01:08:20.142Z,19.07
2018-12-26T01:11:20.339Z,19.20
2018-12-26T01:14:19.815Z,18.73
2018-12-26T01:17:20.683Z,15.70
2018-12-26T01:20:20.336Z,15.78
2018-12-26T01:23:20.815Z,20.97
2018-12-26T01:26:20.871Z,18.82
2018-12-26T01:29:21.307Z,18.52
2018-12-26T01:32:20.707Z,22.07
2018-12-26T01:35:24.006Z,21.75
2018-12-26T01:38:24.107Z,22.40
2018-12-26T01:41:23.510Z,21.10
2018-12-26T01:44:24.014Z,24.02
2018-12-26T01:47:24.100Z,29.10
2018-12-26T01:50:23.579Z,27.20
2018-12-26T01:53:23.696Z,25.57
2018-12-26T01:56:10.783Z,28.87
2018-12-26T01:59:17.353Z,23.30
2018-12-26T02:02:17.300Z,25.20
2018-12-26T02:05:17.602Z,24.27
2018-12-26T02:08:17.865Z,25.95
2018-12-26T02:11:17.283Z,25.82
2018-12-26T02:14:17.492Z,27.95
2018-12-26T02:17:17.688Z,25.80
2018-12-26T02:20:17.702Z,30.97
2018-12-26T02:23:17.879Z,28.38
2018-12-26T02:26:18.083Z,23.55
2018-12-26T02:29:18.783Z,26.17
2018-12-26T02:32:19.160Z,27.82
2018-12-26T02:38:22.407Z,26.20
2018-12-26T02:41:22.551Z,27.30
2018-12-26T02:44:22.869Z,26.90
2018-12-26T02:47:23.451Z,31.97
2018-12-26T02:50:23.393Z,27.22
2018-12-26T02:53:23.545Z,27.87
2018-12-26T02:56:23.787Z,30.20
2018-12-26T02:59:24.293Z,25.25
2018-12-26T03:02:23.991Z,28.67
2018-12-26T03:05:23.390Z,27.25
2018-12-26T03:08:23.641Z,25.88
2018-12-26T03:11:23.982Z,24.35
2018-12-26T03:14:24.296Z,25.40
2018-12-26T03:17:23.831Z,23.02
2018-12-26T03:20:24.451Z,28.65
2018-12-26T03:23:24.524Z,25.30
2018-12-26T03:26:23.896Z,30.12
2018-12-26T03:29:24.410Z,29.65
2018-12-26T03:32:24.980Z,26.07
2018-12-26T03:35:25.925Z,23.87
2018-12-26T03:38:26.555Z,30.68
2018-12-26T03:41:26.509Z,28.55
2018-12-26T03:44:26.031Z,26.02
2018-12-26T03:47:26.316Z,25.05
2018-12-26T03:50:26.503Z,29.80
2018-12-26T03:53:24.328Z,29.42
2018-12-26T03:56:34.291Z,28.32
2018-12-26T03:59:33.798Z,25.27
2018-12-26T04:02:34.073Z,30.25
2018-12-26T04:05:34.695Z,31.12
2018-12-26T04:08:34.823Z,33.23
2018-12-26T04:11:35.291Z,28.15
2018-12-26T04:14:39.307Z,29.27
2018-12-26T04:17:38.702Z,29.77
2018-12-26T04:20:39.287Z,30.70
2018-12-26T04:23:26.676Z,32.78
2018-12-26T04:26:33.214Z,32.40
2018-12-26T04:29:32.959Z,31.27
2018-12-26T04:32:33.937Z,27.00
2018-12-26T04:35:37.624Z,29.00
2018-12-26T04:38:24.507Z,29.55
2018-12-26T04:41:31.073Z,32.48
2018-12-26T04:44:31.078Z,31.52
2018-12-26T04:47:34.195Z,28.50
2018-12-26T04:50:35.203Z,32.88
2018-12-26T04:53:34.607Z,26.02
2018-12-26T04:56:34.329Z,28.27
2018-12-26T04:59:34.379Z,25.10
2018-12-26T05:02:34.100Z,30.23
2018-12-26T05:05:34.075Z,32.98
2018-12-26T05:08:34.448Z,28.02
2018-12-26T05:11:34.131Z,30.00
2018-12-26T05:14:34.545Z,30.97
2018-12-26T05:17:34.637Z,32.90
2018-12-26T05:20:33.963Z,32.88
2018-12-26T05:23:20.837Z,33.63
2018-12-26T05:26:27.951Z,34.92
2018-12-26T05:29:27.699Z,31.17
2018-12-26T05:32:27.343Z,34.88
2018-12-26T05:35:27.337Z,34.15
2018-12-26T05:38:26.937Z,37.48
2018-12-26T05:41:27.151Z,30.75
2018-12-26T05:44:27.520Z,36.08
2018-12-26T05:47:27.567Z,37.20
2018-12-26T05:50:27.878Z,45.10
2018-12-26T05:53:27.979Z,41.53
2018-12-26T05:56:27.336Z,41.35
2018-12-26T05:59:27.555Z,38.95
2018-12-26T06:02:29.943Z,31.27
2018-12-26T06:08:19.394Z,44.03
2018-12-26T06:11:25.935Z,46.83
2018-12-26T06:14:26.039Z,49.42
2018-12-26T06:17:28.392Z,50.33
2018-12-26T06:20:27.752Z,44.98
2018-12-26T06:23:27.068Z,47.23
2018-12-26T06:26:27.294Z,50.80
2018-12-26T06:29:27.387Z,54.05
2018-12-26T06:32:27.731Z,53.92
2018-12-26T06:35:27.809Z,74.30
2018-12-26T06:38:14.948Z,55.78
2018-12-26T06:41:21.530Z,63.65
2018-12-26T06:44:08.431Z,59.10
2018-12-26T06:47:14.975Z,61.08
2018-12-26T06:50:14.398Z,57.35
2018-12-26T06:53:13.828Z,54.33
2018-12-26T06:56:13.265Z,53.35
2018-12-26T06:59:13.610Z,56.18
2018-12-26T07:02:12.973Z,59.70
2018-12-26T07:05:13.315Z,57.45
2018-12-26T07:08:13.708Z,50.48
2018-12-26T07:11:13.888Z,50.85
2018-12-26T07:14:14.090Z,53.73
2018-12-26T07:17:14.411Z,50.75
2018-12-26T07:20:17.487Z,55.95
2018-12-26T07:23:17.696Z,52.62
2018-12-26T07:26:17.773Z,53.95
2018-12-26T07:29:18.118Z,54.90
2018-12-26T07:32:18.069Z,52.38
2018-12-26T07:35:18.399Z,48.90
2018-12-26T07:38:18.652Z,58.20
2018-12-26T07:41:19.234Z,50.28
2018-12-26T07:44:19.402Z,44.85
2018-12-26T07:47:19.721Z,46.80
2018-12-26T07:50:19.124Z,47.30
2018-12-26T07:53:18.675Z,50.90
2018-12-26T07:56:18.976Z,50.80
2018-12-26T07:59:18.509Z,44.93
2018-12-26T08:02:18.657Z,43.35
2018-12-26T08:05:18.936Z,38.35
2018-12-26T08:08:18.678Z,42.85
2018-12-26T08:11:18.701Z,41.60
2018-12-26T08:14:19.247Z,36.05
2018-12-26T08:17:19.587Z,39.50
2018-12-26T08:20:19.747Z,36.00
2018-12-26T08:23:20.056Z,40.28
2018-12-26T08:26:20.319Z,34.75
2018-12-26T08:29:20.035Z,44.30
2018-12-26T08:32:23.232Z,45.15
2018-12-26T08:35:22.722Z,38.13
2018-12-26T08:38:22.791Z,41.30
2018-12-26T08:41:23.048Z,41.23
2018-12-26T08:44:22.943Z,44.67
2018-12-26T08:47:23.264Z,42.88
2018-12-26T08:50:23.692Z,38.83
2018-12-26T08:53:24.004Z,39.10
2018-12-26T08:56:11.158Z,37.13
2018-12-26T08:59:17.916Z,44.38
2018-12-26T09:02:18.063Z,39.05
2018-12-26T09:05:18.283Z,40.95
2018-12-26T09:08:18.575Z,32.95
2018-12-26T09:11:18.992Z,33.92
2018-12-26T09:14:19.201Z,37.45
2018-12-26T09:17:19.656Z,32.33
2018-12-26T09:20:19.783Z,27.85
2018-12-26T09:23:19.694Z,31.73
2018-12-26T09:26:19.853Z,33.05
2018-12-26T09:29:23.368Z,34.05
2018-12-26T09:32:23.068Z,36.42
2018-12-26T09:35:10.160Z,29.70
2018-12-26T09:38:16.787Z,31.65
2018-12-26T09:41:16.734Z,32.75
2018-12-26T09:44:17.185Z,32.63
2018-12-26T09:47:17.446Z,30.88
2018-12-26T09:50:18.003Z,32.67
2018-12-26T09:53:18.066Z,30.00
2018-12-26T09:56:18.672Z,29.45
2018-12-26T09:59:18.876Z,31.33
2018-12-26T10:02:19.046Z,30.25
2018-12-26T10:05:19.587Z,30.27
2018-12-26T10:08:19.551Z,29.90
2018-12-26T10:11:19.864Z,28.02
2018-12-26T10:14:20.107Z,34.00
2018-12-26T10:17:20.546Z,26.55
2018-12-26T10:20:20.508Z,28.57
2018-12-26T10:23:20.899Z,31.23
2018-12-26T10:26:21.500Z,31.23
2018-12-26T10:29:21.329Z,30.72
2018-12-26T10:32:21.519Z,26.87
2018-12-26T10:35:21.199Z,28.23
2018-12-26T10:38:22.478Z,25.17
2018-12-26T10:41:22.868Z,25.25
2018-12-26T10:44:23.486Z,24.85
2018-12-26T10:47:27.874Z,26.77
2018-12-26T10:50:27.356Z,24.43
2018-12-26T10:53:28.102Z,27.82
2018-12-26T10:56:31.145Z,26.42
2018-12-26T10:59:32.473Z,27.60
2018-12-26T11:02:33.643Z,23.50
2018-12-26T11:05:36.737Z,24.80
2018-12-26T11:08:36.904Z,23.95
2018-12-26T11:11:37.517Z,23.55
2018-12-26T11:14:41.101Z,30.02
2018-12-26T11:17:41.037Z,29.63
2018-12-26T11:20:42.175Z,25.05
2018-12-26T11:26:45.010Z,26.37
2018-12-26T11:29:48.756Z,21.60
2018-12-26T11:32:48.880Z,20.62
2018-12-26T11:35:48.498Z,24.72
2018-12-26T11:38:51.379Z,22.17
2018-12-26T11:41:51.464Z,24.02
2018-12-26T11:44:51.860Z,19.98
2018-12-26T11:47:52.489Z,26.00
2018-12-26T11:50:52.929Z,22.32
2018-12-26T11:53:52.731Z,25.52
2018-12-26T11:56:53.062Z,22.17
2018-12-26T11:59:53.230Z,23.40
2018-12-26T12:02:53.643Z,28.85
2018-12-26T12:05:54.086Z,28.27
2018-12-26T12:08:53.987Z,27.27
2018-12-26T12:11:54.160Z,40.20
2018-12-26T12:14:52.367Z,29.87
2018-12-26T12:17:59.838Z,32.55
2018-12-26T12:21:00.045Z,35.20
2018-12-26T12:24:00.465Z,30.50
2018-12-26T12:27:00.956Z,31.62
2018-12-26T12:30:01.354Z,32.10
2018-12-26T12:33:01.474Z,34.58
2018-12-26T12:36:01.956Z,33.58
2018-12-26T12:38:49.507Z,31.65
2018-12-26T12:41:56.440Z,40.10
2018-12-26T12:44:56.369Z,33.33
2018-12-26T12:47:56.036Z,34.25
2018-12-26T12:50:56.265Z,42.23
2018-12-26T12:53:57.559Z,39.38
2018-12-26T12:56:58.239Z,35.43
2018-12-26T12:59:58.173Z,36.80
2018-12-26T13:03:00.533Z,30.75
2018-12-26T13:05:59.846Z,35.73
2018-12-26T13:09:00.164Z,28.70
2018-12-26T13:12:00.377Z,33.65
2018-12-26T13:15:00.625Z,39.15
2018-12-26T13:18:01.220Z,39.00
2018-12-26T13:21:01.439Z,44.95
2018-12-26T13:24:01.811Z,47.08
2018-12-26T13:27:01.413Z,53.05
2018-12-26T13:29:53.622Z,76.45
2018-12-26T13:33:03.307Z,75.78
2018-12-26T13:36:03.415Z,91.63
2018-12-26T13:39:04.070Z,81.75
2018-12-26T13:42:04.282Z,77.75
2018-12-26T13:45:07.389Z,86.40
2018-12-26T13:48:07.791Z,82.90
2018-12-26T13:51:07.468Z,89.72
2018-12-26T13:54:10.905Z,84.62
2018-12-26T13:57:12.053Z,76.97
2018-12-26T14:00:11.982Z,79.87
2018-12-26T14:03:11.895Z,89.22
2018-12-26T14:06:12.335Z,75.97
2018-12-26T14:09:12.725Z,82.15
2018-12-26T14:12:13.487Z,77.55
2018-12-26T14:15:16.319Z,81.02
2018-12-26T14:18:16.720Z,81.78
2018-12-26T14:21:16.932Z,81.50
2018-12-26T14:24:18.335Z,83.60
2018-12-26T14:27:18.872Z,70.92
2018-12-26T14:30:18.842Z,74.65
2018-12-26T14:33:19.176Z,80.03
2018-12-26T14:36:19.695Z,85.75
2018-12-26T14:39:19.604Z,82.92
2018-12-26T14:42:18.922Z,76.42
2018-12-26T14:45:19.279Z,73.00
2018-12-26T14:48:19.795Z,79.00
2018-12-26T14:51:26.360Z,74.50
2018-12-26T14:54:21.448Z,83.27
2018-12-26T14:57:21.533Z,84.92
2018-12-26T15:00:21.833Z,90.10
2018-12-26T15:03:22.146Z,79.27
2018-12-26T15:06:22.681Z,77.08
2018-12-26T15:09:23.159Z,72.35
2018-12-26T15:12:23.023Z,79.00
2018-12-26T15:15:22.680Z,76.67
2018-12-26T15:18:10.791Z,77.22
2018-12-26T15:21:12.431Z,74.67
2018-12-26T15:24:12.831Z,64.42
2018-12-26T15:27:13.301Z,73.37
2018-12-26T15:30:13.815Z,70.12
2018-12-26T15:33:14.188Z,69.77
2018-12-26T15:36:14.742Z,71.55
2018-12-26T15:39:14.648Z,64.60
2018-12-26T15:42:14.250Z,59.88
2018-12-26T15:45:13.808Z,72.78
2018-12-26T15:48:13.323Z,65.17
2018-12-26T15:51:13.979Z,65.00
2018-12-26T15:54:14.335Z,67.40
2018-12-26T15:57:14.587Z,70.78
2018-12-26T16:00:15.037Z,71.07
2018-12-26T16:03:15.967Z,69.85
2018-12-26T16:06:16.499Z,81.30
2018-12-26T16:09:16.643Z,74.32
2018-12-26T16:12:16.272Z,74.47
2018-12-26T16:15:16.355Z,75.30
2018-12-26T16:18:16.621Z,65.35
2018-12-26T16:21:16.955Z,68.28
2018-12-26T16:24:17.254Z,66.65
2018-12-26T16:27:16.725Z,68.80
2018-12-26T16:30:16.904Z,59.50
2018-12-26T16:33:17.096Z,70.78
2018-12-26T16:36:20.331Z,67.58
2018-12-26T16:39:20.714Z,63.78
2018-12-26T16:42:21.400Z,63.17
2018-12-26T16:45:21.059Z,71.15
2018-12-26T16:48:21.407Z,69.42
2018-12-26T16:51:21.507Z,65.97
2018-12-26T16:54:21.380Z,72.82
2018-12-26T16:57:21.689Z,71.90
2018-12-26T17:00:21.595Z,73.05
2018-12-26T17:03:21.994Z,66.33
2018-12-26T17:06:22.161Z,72.72
2018-12-26T17:09:22.400Z,64.17
2018-12-26T17:12:22.831Z,77.62
2018-12-26T17:15:23.191Z,65.08
2018-12-26T17:18:23.436Z,72.85
2018-12-26T17:21:10.948Z,71.60
2018-12-26T17:24:17.631Z,71.80
2018-12-26T17:27:17.393Z,67.55
2018-12-26T17:30:17.845Z,71.62
2018-12-26T17:33:17.330Z,65.30
2018-12-26T17:36:17.349Z,68.07
2018-12-26T17:39:17.602Z,69.87
2018-12-26T17:42:20.867Z,63.70
2018-12-26T17:45:21.199Z,70.35
2018-12-26T17:48:21.883Z,71.95
2018-12-26T17:51:22.060Z,85.53
2018-12-26T17:54:22.390Z,72.17
2018-12-26T17:57:22.222Z,77.90
2018-12-26T18:00:23.373Z,67.37
2018-12-26T18:03:22.800Z,66.70
2018-12-26T18:06:23.114Z,69.67
2018-12-26T18:09:22.676Z,77.03
2018-12-26T18:12:22.115Z,67.67
2018-12-26T18:15:22.576Z,64.45
2018-12-26T18:18:22.904Z,69.60
2018-12-26T18:21:22.709Z,68.35
2018-12-26T18:24:22.207Z,62.43
2018-12-26T18:27:22.527Z,63.42
2018-12-26T18:30:22.964Z,62.95
2018-12-26T18:33:22.287Z,58.33
2018-12-26T18:36:21.923Z,64.37
2018-12-26T18:39:21.312Z,72.60
2018-12-26T18:42:21.468Z,66.92
2018-12-26T18:45:21.604Z,64.20
2018-12-26T18:48:23.359Z,66.33
2018-12-26T18:51:23.290Z,60.38
2018-12-26T18:54:23.105Z,61.70
2018-12-26T18:57:23.384Z,62.58
2018-12-26T19:00:22.751Z,62.15
2018-12-26T19:03:22.363Z,54.20
2018-12-26T19:06:26.050Z,47.80
2018-12-26T19:09:26.234Z,52.30
2018-12-26T19:12:26.720Z,53.20
2018-12-26T19:15:26.455Z,52.88
2018-12-26T19:18:26.761Z,50.70
2018-12-26T19:21:27.377Z,48.65
2018-12-26T19:24:27.460Z,53.13
2018-12-26T19:27:28.011Z,50.95
2018-12-26T19:30:28.260Z,55.43
2018-12-26T19:33:29.828Z,56.13
2018-12-26T19:36:29.574Z,61.45
2018-12-26T19:39:29.343Z,53.40
2018-12-26T19:42:37.194Z,58.40
2018-12-26T19:45:30.336Z,54.25
2018-12-26T19:48:30.893Z,52.20
2018-12-26T19:51:18.058Z,54.85
2018-12-26T19:54:18.291Z,49.18
2018-12-26T19:57:17.688Z,55.30
2018-12-26T20:00:17.100Z,54.93
2018-12-26T20:03:18.044Z,47.38
2018-12-26T20:06:18.882Z,46.95
2018-12-26T20:09:21.371Z,44.30
2018-12-26T20:12:20.753Z,48.55
2018-12-26T20:15:20.448Z,45.48
2018-12-26T20:18:20.731Z,42.20
2018-12-26T20:21:21.134Z,44.27
2018-12-26T20:24:24.744Z,46.13
2018-12-26T20:27:24.338Z,42.40
2018-12-26T20:30:24.257Z,46.73
2018-12-26T20:33:24.386Z,41.55
2018-12-26T20:36:24.935Z,42.20
2018-12-26T20:39:28.027Z,44.27
2018-12-26T20:42:28.750Z,42.17
2018-12-26T20:45:28.763Z,46.48
2018-12-26T20:48:28.587Z,47.58
2018-12-26T20:51:28.943Z,47.65
2018-12-26T20:54:29.630Z,50.55
2018-12-26T20:57:29.983Z,47.73
2018-12-26T21:00:27.806Z,49.77
2018-12-26T21:03:34.477Z,49.18
2018-12-26T21:06:34.107Z,45.12
2018-12-26T21:09:34.273Z,42.78
2018-12-26T21:12:34.863Z,48.05
2018-12-26T21:15:35.075Z,46.50
2018-12-26T21:18:35.692Z,41.45
2018-12-26T21:21:35.665Z,48.55
2018-12-26T21:24:36.068Z,48.92
2018-12-26T21:27:35.575Z,44.85
2018-12-26T21:30:35.800Z,50.33
2018-12-26T21:33:35.886Z,47.27
2018-12-26T21:36:35.267Z,54.55
2018-12-26T21:39:34.747Z,51.60
2018-12-26T21:42:34.887Z,49.53
2018-12-26T21:45:35.289Z,50.65
2018-12-26T21:48:35.603Z,48.83
2018-12-26T21:51:35.840Z,48.15
2018-12-26T21:54:35.919Z,45.95
2018-12-26T21:57:36.054Z,44.15
2018-12-26T22:00:35.519Z,49.33
2018-12-26T22:03:36.320Z,47.20
2018-12-26T22:06:40.095Z,53.70
2018-12-26T22:09:42.135Z,47.55
2018-12-26T22:12:41.852Z,51.37
2018-12-26T22:15:42.701Z,46.23
2018-12-26T22:21:34.855Z,52.03
2018-12-26T22:24:22.035Z,49.70
2018-12-26T22:27:09.360Z,56.92
2018-12-26T22:30:16.294Z,51.85
2018-12-26T22:33:15.955Z,52.80
2018-12-26T22:36:16.259Z,53.85
2018-12-26T22:39:16.686Z,54.88
2018-12-26T22:42:19.790Z,59.58
2018-12-26T22:45:20.557Z,57.80
2018-12-26T22:48:25.180Z,51.68
2018-12-26T22:51:26.865Z,63.98
2018-12-26T22:54:26.756Z,55.40
2018-12-26T22:57:27.013Z,60.60
2018-12-26T23:04:20.227Z,57.08
2018-12-26T23:07:20.652Z,58.83
2018-12-26T23:10:20.675Z,64.58
2018-12-26T23:13:21.890Z,57.67
2018-12-26T23:16:21.266Z,62.67
2018-12-26T23:19:21.523Z,64.70
2018-12-26T23:22:08.445Z,64.35
2018-12-26T23:25:15.216Z,66.45
2018-12-26T23:28:15.614Z,65.05
2018-12-26T23:31:15.681Z,69.53
2018-12-26T23:34:15.928Z,73.75
2018-12-26T23:37:15.921Z,70.05
2018-12-26T23:40:15.529Z,82.97
2018-12-26T23:43:16.030Z,67.95
2018-12-26T23:46:16.075Z,70.80
2018-12-26T23:49:16.341Z,73.65
2018-12-26T23:52:16.321Z,79.10
2018-12-26T23:55:16.517Z,87.22
2018-12-26T23:58:16.668Z,84.30
